Terminal Aerodrome Forecast
Issued by NWS Charleston, WV

Current Version | Previous Version | Graphics & Text | Print | Product List | Glossary On
Versions: 1 2 3 4 5 6 7 8 9 10 11 12 13 14 15 16 17 18 19 20 21 22 23 24
000
FTUS41 KRLX 301730
TAFPKB
TAF
KPKB 301730Z 3018/0118 20006KT P6SM OVC100
     FM010100 25008G20KT P6SM VCSH BKN030
     FM010200 25008G16KT P6SM BKN060
     FM011200 26008G16KT P6SM BKN030
     FM011600 26010G18KT P6SM BKN035=

USA.gov is the U.S. government's official web portal to all federal, state and local government web resources and services.